Terminal Aerodrome Forecast
Issued by NWS

Home | Current Version | Previous Version | Text Only | Print | Product List | Glossary On
Versions: 1 2 3 4 5 6 7 8 9 10 11 12 13 14 15 16 17 18
000
FTUS43 KPAH 231720
TAFCGI
TAF
KCGI 231720Z 2318/2418 34013G20KT P6SM BKN020
     FM240000 35006KT P6SM BKN025
     FM240600 VRB03KT P6SM SCT025
     FM241500 16007KT P6SM SCT100=

USA.gov is the U.S. government's official web portal to all federal, state and local government web resources and services.